Historyczne dane pomiarowe

Dodano dane terminowe – wersja testowa.

Dane z okresu 1951-2019

Wersja bazy: 1.32 [2019-02-07, lista zmian], aktualizacja planowana na 2019-03-07

Dane meteo z obszaru Polski uzyskane na podstawie danych udostępnionych przez Instytut Meteorologii i Gospodarki Wodnej – Państwowy Instytut Badawczy.

 

Wybierz Datę:    

       

TemperaturaWilgotnośćWiatrCiśnienieOpadyŚniegCzas trwania zjawisk
 Stacja t tx tn tng RH VA  wxwx mslp ppp RRR   cm mm wxwxwxwxwxwxwx
2002-01-14 -3.0 -0.9 -7.1-12.1-------- 0.0-- 2---------
2002-01-15 -4.1 -0.9 -7.1 -7.9-------- 0.0-- 2---------
2002-01-16 -7.7 -4.2-10.0-13.3-------- 0.0------------
2002-01-17 -3.2 0.7 -8.5-13.9-------- 0.0------------
2002-01-18 -3.0 1.4 -7.1-11.6-------- 0.0------------
2002-01-19 1.3 3.2 -0.7 -3.0-------- 2.2------------
2002-01-20 3.8 5.9 2.3 0.4-------- 4.2------------
2002-01-21 6.2 8.2 3.0 1.7-------- 1.4------------
2002-01-22 7.5 11.3 4.7 1.0-------- 0.0------------
2002-01-23 6.0 9.3 4.3 1.8-------- 0.0------------
2002-01-24 7.7 11.9 2.1 1.5-------- 0.4------------
2002-01-25 4.6 10.0 2.3 0.2-------- 1.4------------
2002-01-26 6.6 11.3 0.9 0.8-------- 2.0------------
2002-01-27 8.5 10.4 6.8 5.6-------- 5.1------------
2002-01-28 9.4 15.2 5.9 4.6-------- 1.7------------
2002-01-29 9.7 12.4 7.8 4.6-------- 0.0------------
2002-01-30 9.4 12.8 5.1 1.0-------- 0.0------------
2002-01-31 9.7 13.3 7.1 3.9-------- 0.0------------
2002-02-01 6.8 12.2 2.5 -0.5-------- 0.0------------
2002-02-02 11.2 17.4 7.1 2.8-------- 0.0------------
2002-02-03 5.9 16.0 -0.5 -3.5-------- 0.0------------
2002-02-04 6.9 12.6 0.5 -3.6-------- 0.0------------
2002-02-05 8.3 13.0 0.7 -2.5-------- 0.0------------
2002-02-06 8.4 11.2 6.6 3.1-------- 1.5------------
2002-02-07 6.2 9.5 2.7 -2.0-------- 0.4------------
2002-02-08 6.3 8.1 4.5 3.1-------- 1.6------------
2002-02-09 9.3 12.3 5.9 3.1-------- 5.7------------
2002-02-10 7.6 11.4 5.7 3.1-------- 2.5------------
2002-02-11 7.5 9.8 5.1 3.9-------- 8.0------------
2002-02-12 11.0 12.8 9.4 7.7-------- 1.5------------
213.0 ms

 

Źródłem pochodzenia danych jest Instytut Meteorologii i Gospodarki Wodnej – Państwowy Instytut Badawczy. Dane Instytutu Meteorologii i Gospodarki Wodnej – Państwowego Instytutu Badawczego zostały przetworzone.

Dane źródłowe można odnaleźć na stronie https://dane.imgw.pl